Time;durP1;ratioP1;P1;durP2;ratioP2;P2;SDS_P1;SDS_P2;PMS_P1;PMS_P2;Temp;Humidity;BMP_temperature;BMP_pressure;BME280_temperature;BME280_humidity;BME280_pressure;Samples;Min_cycle;Max_cycle;Signal;HPM_P1;HPM_P2
2023/12/29 00:02:07;;;;;;;1.87;1.77;;;;;;;9.32;100.00;98133.50;5093209;28;20538;-73
2023/12/29 00:04:33;;;;;;;1.83;1.60;;;;;;;9.28;100.00;98137.59;5093535;28;20576;-74
2023/12/29 00:06:59;;;;;;;3.30;2.00;;;;;;;9.38;100.00;98126.56;5093235;28;20699;-74
2023/12/29 00:09:26;;;;;;;2.40;1.67;;;;;;;9.35;100.00;98119.00;5093459;28;20224;-73
2023/12/29 00:11:54;;;;;;;2.43;1.70;;;;;;;9.36;100.00;98123.28;5093232;28;20218;-73
2023/12/29 00:14:20;;;;;;;3.30;1.87;;;;;;;9.42;100.00;98133.88;5093059;28;20773;-73
2023/12/29 00:16:47;;;;;;;2.17;1.90;;;;;;;9.41;100.00;98134.91;5093531;28;20597;-73
2023/12/29 00:19:13;;;;;;;3.33;1.73;;;;;;;9.52;100.00;98136.09;5093385;28;20219;-73
2023/12/29 00:21:40;;;;;;;1.87;1.60;;;;;;;9.60;100.00;98139.31;5093115;28;20772;-73
2023/12/29 00:24:06;;;;;;;2.07;1.70;;;;;;;9.56;100.00;98127.50;5092990;28;20249;-73
2023/12/29 00:26:32;;;;;;;2.03;1.83;;;;;;;9.51;100.00;98140.59;5093339;28;20208;-73
2023/12/29 00:28:59;;;;;;;1.60;1.50;;;;;;;9.50;100.00;98119.59;5093187;28;20280;-73
2023/12/29 00:31:25;;;;;;;1.87;1.73;;;;;;;9.60;100.00;98131.38;5093272;28;20208;-73
2023/12/29 00:33:53;;;;;;;2.57;2.27;;;;;;;9.57;100.00;98125.66;5093355;28;20232;-73
2023/12/29 00:36:23;;;;;;;4.87;1.90;;;;;;;9.45;100.00;98128.16;5093376;28;20199;-73
2023/12/29 00:38:50;;;;;;;1.80;1.70;;;;;;;9.50;100.00;98127.56;5093093;28;20228;-73
2023/12/29 00:41:16;;;;;;;4.43;1.90;;;;;;;9.46;100.00;98123.69;5092751;28;20295;-74
2023/12/29 00:43:44;;;;;;;2.57;1.80;;;;;;;9.56;100.00;98116.88;5093469;28;20204;-74
2023/12/29 00:46:15;;;;;;;1.93;1.73;;;;;;;9.49;100.00;98121.41;5093146;28;20290;-73
2023/12/29 00:48:44;;;;;;;3.13;1.90;;;;;;;9.38;100.00;98121.25;5096578;28;20214;-73
2023/12/29 00:51:11;;;;;;;1.57;1.47;;;;;;;9.30;100.00;98127.63;5096365;28;20269;-74
2023/12/29 00:53:38;;;;;;;2.83;1.80;;;;;;;9.43;100.00;98126.75;5096589;28;20254;-74
2023/12/29 00:56:10;;;;;;;3.87;1.83;;;;;;;9.38;100.00;98132.69;5096692;28;20206;-74
2023/12/29 00:58:44;;;;;;;1.97;1.80;;;;;;;9.35;100.00;98137.59;5096660;28;20210;-73
2023/12/29 01:01:11;;;;;;;1.90;1.80;;;;;;;9.41;100.00;98137.56;5096330;28;20555;-73
2023/12/29 01:03:38;;;;;;;1.93;1.70;;;;;;;9.45;100.00;98138.78;5096201;28;20672;-73
2023/12/29 01:06:04;;;;;;;3.00;1.90;;;;;;;9.49;100.00;98144.47;5096262;28;20687;-73
2023/12/29 01:08:31;;;;;;;3.33;2.10;;;;;;;9.56;100.00;98143.41;5096364;28;20210;-73
2023/12/29 01:10:57;;;;;;;3.23;1.70;;;;;;;9.66;100.00;98153.59;5096368;28;20230;-73
2023/12/29 01:13:23;;;;;;;2.47;1.80;;;;;;;9.63;100.00;98146.88;5096367;28;20233;-73
2023/12/29 01:15:52;;;;;;;2.87;2.00;;;;;;;9.67;100.00;98149.91;5096017;28;20200;-73
2023/12/29 01:18:19;;;;;;;2.93;1.97;;;;;;;9.71;100.00;98148.47;5095838;28;20686;-73
2023/12/29 01:20:46;;;;;;;2.20;2.00;;;;;;;9.69;100.00;98140.72;5095804;28;20227;-73
2023/12/29 01:23:12;;;;;;;2.77;1.93;;;;;;;9.67;100.00;98134.00;5096190;28;20211;-73
2023/12/29 01:25:38;;;;;;;1.87;1.77;;;;;;;9.64;100.00;98123.81;5095958;28;20204;-73
2023/12/29 01:28:05;;;;;;;3.53;1.90;;;;;;;9.68;100.00;98125.03;5096280;28;20203;-73
2023/12/29 01:30:31;;;;;;;2.90;2.00;;;;;;;9.68;100.00;98128.47;5095879;28;20224;-73
2023/12/29 01:32:58;;;;;;;2.93;1.90;;;;;;;9.73;100.00;98130.50;5095514;28;20226;-73
2023/12/29 01:35:26;;;;;;;2.10;1.90;;;;;;;9.75;100.00;98133.75;5095875;28;20226;-73
2023/12/29 01:37:55;;;;;;;2.97;2.07;;;;;;;9.71;100.00;98127.25;5095371;28;20208;-73
2023/12/29 01:40:21;;;;;;;2.93;1.80;;;;;;;9.72;100.00;98144.78;5095309;28;20228;-73
2023/12/29 01:42:47;;;;;;;2.83;1.83;;;;;;;9.64;100.00;98137.09;5095719;28;20689;-73
2023/12/29 01:45:22;;;;;;;2.50;2.30;;;;;;;9.70;100.00;98137.06;5095303;28;20566;-73
2023/12/29 01:47:50;;;;;;;2.57;1.93;;;;;;;9.79;100.00;98127.00;5095669;28;20241;-73
2023/12/29 01:50:19;;;;;;;1.87;1.77;;;;;;;9.85;100.00;98124.31;5095869;28;20230;-73
2023/12/29 01:52:47;;;;;;;2.70;1.97;;;;;;;9.84;100.00;98119.22;5095512;28;20204;-73
2023/12/29 01:55:17;;;;;;;2.20;2.00;;;;;;;9.85;100.00;98120.84;5095549;28;20667;-73
2023/12/29 01:57:44;;;;;;;2.50;2.00;;;;;;;9.82;100.00;98119.41;5095068;28;20188;-73
2023/12/29 02:00:12;;;;;;;2.20;2.00;;;;;;;9.85;100.00;98126.97;5095245;28;20234;-73
2023/12/29 02:02:40;;;;;;;2.13;1.93;;;;;;;9.82;100.00;98113.31;5095491;28;20286;-73
2023/12/29 02:05:08;;;;;;;1.90;1.80;;;;;;;9.72;100.00;98119.06;5095463;28;20210;-73
2023/12/29 02:07:34;;;;;;;2.33;1.97;;;;;;;9.79;100.00;98108.41;5094962;28;20203;-73
2023/12/29 02:10:02;;;;;;;3.30;2.13;;;;;;;9.80;100.00;98110.03;5095442;28;20246;-73
2023/12/29 02:12:30;;;;;;;2.20;2.00;;;;;;;9.76;100.00;98109.66;5094953;28;20299;-73
2023/12/29 02:14:57;;;;;;;2.80;2.20;;;;;;;9.75;100.00;98109.88;5095065;28;20228;-73
2023/12/29 02:17:32;;;;;;;5.10;2.00;;;;;;;9.71;100.00;98111.31;5095097;28;20207;-73
2023/12/29 02:19:58;;;;;;;3.43;2.47;;;;;;;9.78;100.00;98109.44;5094780;28;20223;-73
2023/12/29 02:22:25;;;;;;;2.27;2.03;;;;;;;9.82;100.00;98094.72;5094717;28;20204;-73
2023/12/29 02:24:52;;;;;;;2.43;2.23;;;;;;;9.81;100.00;98104.53;5094901;28;20207;-73
2023/12/29 02:27:44;;;;;;;2.23;1.83;;;;;;;9.86;100.00;98095.94;5094914;28;20204;-73
2023/12/29 02:30:18;;;;;;;2.40;2.20;;;;;;;9.86;100.00;98094.06;5094954;28;20219;-73
2023/12/29 02:32:47;;;;;;;2.33;2.13;;;;;;;9.90;100.00;98087.31;5094807;28;20190;-73
2023/12/29 02:35:23;;;;;;;3.80;2.17;;;;;;;9.87;100.00;98087.72;5094484;28;20219;-73
2023/12/29 02:37:50;;;;;;;2.67;1.90;;;;;;;9.93;100.00;98094.88;5094690;28;20192;-73
2023/12/29 02:40:17;;;;;;;3.00;2.50;;;;;;;9.88;100.00;98092.03;5094325;28;20231;-73
2023/12/29 02:42:50;;;;;;;3.20;2.27;;;;;;;9.87;100.00;98094.91;5094836;28;20226;-73
2023/12/29 02:45:17;;;;;;;2.60;2.30;;;;;;;9.89;100.00;98076.91;5094659;28;20572;-73
2023/12/29 02:47:45;;;;;;;2.47;2.07;;;;;;;9.88;100.00;98077.94;5094394;28;20208;-73
2023/12/29 02:50:11;;;;;;;3.10;2.37;;;;;;;9.88;100.00;98077.94;5076539;28;20219;-73
2023/12/29 02:52:38;;;;;;;2.10;2.00;;;;;;;9.83;100.00;98085.72;5094465;28;20200;-73
2023/12/29 02:55:05;;;;;;;3.37;2.37;;;;;;;9.82;100.00;98084.09;5094138;28;20720;-73
2023/12/29 02:57:31;;;;;;;3.50;2.50;;;;;;;9.82;100.00;98078.78;5094616;28;20203;-73
2023/12/29 02:59:58;;;;;;;3.57;2.20;;;;;;;9.84;100.00;98074.06;5093979;28;20228;-73
2023/12/29 03:02:25;;;;;;;3.43;2.23;;;;;;;9.78;100.00;98064.31;5094293;28;20208;-73
2023/12/29 03:04:51;;;;;;;2.43;2.23;;;;;;;9.78;100.00;98066.97;5094360;28;20199;-73
2023/12/29 03:07:18;;;;;;;3.20;2.30;;;;;;;9.71;100.00;98061.69;5094502;28;20208;-73
2023/12/29 03:09:44;;;;;;;2.13;1.93;;;;;;;9.66;100.00;98071.31;5093089;28;20228;-73
2023/12/29 03:12:11;;;;;;;2.50;2.07;;;;;;;9.67;100.00;98072.94;5094155;28;20200;-73
2023/12/29 03:14:37;;;;;;;3.13;2.00;;;;;;;9.72;100.00;98070.44;5094551;28;20224;-73
2023/12/29 03:17:03;;;;;;;3.97;2.50;;;;;;;9.69;100.00;98062.94;5094114;28;20207;-73
2023/12/29 03:19:30;;;;;;;1.90;1.80;;;;;;;9.61;100.00;98063.19;5094032;28;20223;-73
2023/12/29 03:21:56;;;;;;;2.50;2.30;;;;;;;9.55;100.00;98048.13;5093987;28;20210;-73
2023/12/29 03:24:22;;;;;;;2.70;2.40;;;;;;;9.55;100.00;98064.03;5093738;28;20539;-73
2023/12/29 03:26:49;;;;;;;2.60;2.03;;;;;;;9.50;100.00;98059.34;5093883;28;20588;-73
2023/12/29 03:29:15;;;;;;;3.13;2.30;;;;;;;9.51;100.00;98047.69;5093773;28;20220;-73
2023/12/29 03:31:42;;;;;;;3.20;2.33;;;;;;;9.47;100.00;98040.41;5093602;28;20206;-73
2023/12/29 03:34:08;;;;;;;3.47;2.30;;;;;;;9.43;100.00;98040.00;5093711;28;20226;-73
2023/12/29 03:36:35;;;;;;;2.57;2.37;;;;;;;9.39;100.00;98041.47;5093724;28;20207;-73
2023/12/29 03:39:02;;;;;;;3.83;2.17;;;;;;;9.32;100.00;98047.81;5093619;28;20226;-73
2023/12/29 03:41:28;;;;;;;2.70;2.37;;;;;;;9.26;100.00;98036.22;5093362;28;20204;-73
2023/12/29 03:43:56;;;;;;;2.93;2.40;;;;;;;9.27;100.00;98047.63;5093344;28;20568;-73
2023/12/29 03:46:23;;;;;;;2.70;2.50;;;;;;;9.24;100.00;98040.09;5093831;28;20283;-73
2023/12/29 03:48:50;;;;;;;3.30;2.33;;;;;;;9.21;100.00;98040.50;5093509;28;20211;-73
2023/12/29 03:51:17;;;;;;;2.37;2.13;;;;;;;9.19;100.00;98037.25;5093541;28;20203;-73
2023/12/29 03:53:43;;;;;;;3.50;2.40;;;;;;;9.17;100.00;98050.72;5093528;28;20224;-73
2023/12/29 03:56:14;;;;;;;2.80;1.97;;;;;;;9.20;100.00;98045.03;5093651;28;20619;-73
2023/12/29 03:58:40;;;;;;;1.97;1.80;;;;;;;9.26;100.00;98043.34;5094257;28;20194;-73
2023/12/29 04:01:14;;;;;;;2.73;1.97;;;;;;;9.25;100.00;98037.25;5093084;28;20602;-73
2023/12/29 04:03:42;;;;;;;2.43;2.17;;;;;;;9.32;100.00;98034.56;5093111;28;20662;-73
2023/12/29 04:06:09;;;;;;;2.33;1.97;;;;;;;9.35;100.00;98034.13;5093595;28;20214;-74
2023/12/29 04:08:36;;;;;;;2.00;1.80;;;;;;;9.34;100.00;98040.47;5093267;28;20200;-73
2023/12/29 04:11:03;;;;;;;2.27;2.03;;;;;;;9.36;100.00;98027.78;5093060;28;20224;-73
2023/12/29 04:13:29;;;;;;;2.80;2.00;;;;;;;9.35;100.00;98037.59;5093057;28;20226;-73
2023/12/29 04:15:56;;;;;;;3.47;2.07;;;;;;;9.33;100.00;98033.53;5093374;28;20240;-73
2023/12/29 04:18:24;;;;;;;2.00;1.83;;;;;;;9.32;100.00;98040.66;5093465;28;20204;-73
2023/12/29 04:20:51;;;;;;;2.03;1.90;;;;;;;9.29;100.00;98027.00;5094837;28;20250;-73
2023/12/29 04:23:17;;;;;;;1.97;1.80;;;;;;;9.21;100.00;98025.41;5097360;28;20214;-73
2023/12/29 04:25:44;;;;;;;3.80;2.00;;;;;;;9.16;100.00;98033.19;5096805;28;20564;-73
2023/12/29 04:28:10;;;;;;;1.97;1.87;;;;;;;9.14;100.00;98029.94;5097457;28;20204;-73
2023/12/29 04:30:37;;;;;;;3.50;2.13;;;;;;;9.21;100.00;98035.19;5097115;28;20555;-73
2023/12/29 04:33:03;;;;;;;2.00;1.90;;;;;;;9.17;100.00;98032.16;5096894;28;20206;-73
2023/12/29 04:35:30;;;;;;;2.83;1.80;;;;;;;9.18;100.00;98035.63;5096709;28;20234;-73
2023/12/29 04:37:56;;;;;;;3.03;2.00;;;;;;;9.16;100.00;98041.16;5097269;28;20212;-73
2023/12/29 04:40:24;;;;;;;2.50;2.00;;;;;;;9.11;100.00;98034.84;5096658;28;20733;-73
2023/12/29 04:42:50;;;;;;;2.07;1.93;;;;;;;9.01;100.00;98016.72;5096821;28;20204;-73
2023/12/29 04:45:16;;;;;;;2.63;2.17;;;;;;;8.97;100.00;98028.75;5096523;28;20200;-73
2023/12/29 04:47:43;;;;;;;2.30;2.10;;;;;;;8.94;100.00;98029.19;5096322;28;20219;-73
2023/12/29 04:50:09;;;;;;;2.63;1.93;;;;;;;8.98;100.00;98035.72;5096653;28;20230;-73
2023/12/29 04:52:36;;;;;;;2.60;1.93;;;;;;;9.07;100.00;98054.84;5097438;28;20542;-73
2023/12/29 04:55:02;;;;;;;2.57;1.80;;;;;;;9.14;100.00;98053.00;5096550;28;20224;-73
2023/12/29 04:57:28;;;;;;;2.03;1.90;;;;;;;9.12;100.00;98053.19;5096739;28;20204;-73
2023/12/29 04:59:55;;;;;;;4.13;1.97;;;;;;;9.15;100.00;98052.75;5096447;28;20235;-73
2023/12/29 05:02:21;;;;;;;2.27;1.80;;;;;;;9.13;100.00;98046.03;5096270;28;20295;-73
2023/12/29 05:04:47;;;;;;;4.03;2.10;;;;;;;9.18;100.00;98041.75;5095669;28;20204;-73
2023/12/29 05:07:14;;;;;;;2.20;1.80;;;;;;;9.11;100.00;98042.78;5096205;28;20204;-73
2023/12/29 05:09:40;;;;;;;1.83;1.63;;;;;;;9.13;100.00;98038.09;5095979;28;20227;-73
2023/12/29 05:12:15;;;;;;;2.60;1.80;;;;;;;9.17;100.00;98045.44;5096165;28;20210;-73
2023/12/29 05:14:44;;;;;;;2.30;2.10;;;;;;;9.14;100.00;98045.03;5095705;28;20217;-73
2023/12/29 05:17:15;;;;;;;2.30;2.10;;;;;;;9.18;100.00;98047.03;5095895;28;20570;-73
2023/12/29 05:19:47;;;;;;;2.30;1.90;;;;;;;9.21;100.00;98053.78;5095627;28;20299;-73
2023/12/29 05:22:17;;;;;;;2.33;1.80;;;;;;;9.25;100.00;98057.63;5095512;28;20302;-73
2023/12/29 05:24:43;;;;;;;2.17;2.00;;;;;;;9.21;100.00;98059.06;5095288;28;20229;-73
2023/12/29 05:27:20;;;;;;;2.47;2.17;;;;;;;9.19;100.00;98048.66;5095668;28;20204;-73
2023/12/29 05:29:53;;;;;;;2.43;2.23;;;;;;;9.19;100.00;98047.88;5095911;28;20227;-74
2023/12/29 05:32:20;;;;;;;2.53;2.33;;;;;;;9.18;100.00;98044.41;5095115;28;20299;-73
2023/12/29 05:34:46;;;;;;;2.47;1.80;;;;;;;9.14;100.00;98034.44;5095465;28;20220;-73
2023/12/29 05:37:12;;;;;;;2.03;1.83;;;;;;;9.09;100.00;98039.56;5095342;28;20209;-73
2023/12/29 05:39:42;;;;;;;2.53;2.33;;;;;;;9.03;100.00;98045.69;5095799;28;20314;-73
2023/12/29 05:42:09;;;;;;;2.47;2.07;;;;;;;8.95;100.00;98041.41;5096592;28;20381;-73
2023/12/29 05:44:38;;;;;;;4.30;2.20;;;;;;;8.98;100.00;98040.19;5095196;28;20202;-73
2023/12/29 05:47:07;;;;;;;2.20;2.03;;;;;;;8.92;100.00;98046.34;5095074;28;20645;-73
2023/12/29 05:49:38;;;;;;;2.53;2.33;;;;;;;8.85;100.00;98053.47;5095460;28;20310;-73
2023/12/29 05:52:06;;;;;;;2.90;2.60;;;;;;;8.86;100.00;98049.78;5095351;28;20188;-73
2023/12/29 05:54:33;;;;;;;3.03;2.63;;;;;;;8.85;100.00;98056.97;5095268;28;20657;-73
2023/12/29 05:56:59;;;;;;;2.70;2.50;;;;;;;8.80;100.00;98042.69;5094945;28;20294;-73
2023/12/29 05:59:26;;;;;;;2.23;2.03;;;;;;;8.77;100.00;98033.31;5095118;28;20415;-73
2023/12/29 06:01:52;;;;;;;2.47;2.27;;;;;;;8.77;100.00;98051.03;5095516;28;20299;-73
2023/12/29 06:04:18;;;;;;;2.77;2.27;;;;;;;8.80;100.00;98063.88;5095064;28;20287;-73
2023/12/29 06:06:45;;;;;;;2.87;2.67;;;;;;;8.76;100.00;98060.03;5095056;28;20294;-73
2023/12/29 06:09:11;;;;;;;2.80;2.60;;;;;;;8.73;100.00;98053.31;5094775;28;20778;-73
2023/12/29 06:11:38;;;;;;;2.73;2.53;;;;;;;8.73;100.00;98052.50;5094907;28;20769;-73
2023/12/29 06:14:04;;;;;;;2.87;2.60;;;;;;;8.70;100.00;98053.72;5094669;28;20230;-73
2023/12/29 06:16:31;;;;;;;3.23;2.70;;;;;;;8.70;100.00;98055.56;5094632;28;20294;-73
2023/12/29 06:18:57;;;;;;;3.03;2.77;;;;;;;8.70;100.00;98055.56;5094638;28;20232;-73
2023/12/29 06:21:24;;;;;;;4.20;2.30;;;;;;;8.62;100.00;98050.47;5094622;28;20300;-73
2023/12/29 06:23:50;;;;;;;2.43;2.23;;;;;;;8.62;100.00;98051.28;5094775;28;20294;-74
2023/12/29 06:26:22;;;;;;;2.60;2.40;;;;;;;8.56;100.00;98048.66;5094820;28;20295;-73
2023/12/29 06:28:49;;;;;;;3.83;2.40;;;;;;;8.57;100.00;98048.44;5094833;28;20340;-73
2023/12/29 06:31:15;;;;;;;2.43;2.23;;;;;;;8.56;100.00;98052.09;5095140;28;20299;-73
2023/12/29 06:33:45;;;;;;;2.93;2.27;;;;;;;8.59;100.00;98053.53;5094332;28;20210;-73
2023/12/29 06:36:11;;;;;;;2.50;2.30;;;;;;;8.61;100.00;98060.28;5094480;28;20298;-73
2023/12/29 06:38:38;;;;;;;2.33;2.13;;;;;;;8.58;100.00;98044.78;5094325;28;20298;-73
2023/12/29 06:41:04;;;;;;;2.43;2.10;;;;;;;8.59;100.00;98048.22;5094317;28;20314;-73
2023/12/29 06:43:31;;;;;;;1.93;1.73;;;;;;;8.56;100.00;98036.19;5094174;28;20757;-73
2023/12/29 06:45:58;;;;;;;2.00;1.90;;;;;;;8.52;100.00;98028.88;5094258;28;20562;-73
2023/12/29 06:48:24;;;;;;;2.40;2.13;;;;;;;8.52;100.00;98020.94;5093882;28;20765;-73
2023/12/29 06:50:50;;;;;;;2.43;1.80;;;;;;;8.61;100.00;98025.00;5093984;28;20314;-73
2023/12/29 06:53:18;;;;;;;2.20;2.00;;;;;;;8.62;100.00;98031.91;5093709;28;20735;-73
2023/12/29 06:55:44;;;;;;;2.60;2.40;;;;;;;8.65;100.00;98031.53;5094022;28;20323;-73
2023/12/29 06:58:11;;;;;;;4.20;2.10;;;;;;;8.65;100.00;98040.25;5093905;28;20271;-73
2023/12/29 07:00:37;;;;;;;2.43;1.87;;;;;;;8.73;100.00;98036.59;5093656;28;20274;-73
2023/12/29 07:03:04;;;;;;;2.10;1.90;;;;;;;8.76;100.00;98037.00;5093704;28;20640;-73
2023/12/29 07:05:30;;;;;;;2.30;1.93;;;;;;;8.81;100.00;98041.66;5093919;28;20302;-73
2023/12/29 07:07:57;;;;;;;2.33;2.00;;;;;;;8.89;100.00;98044.09;5093870;28;20208;-73
2023/12/29 07:10:23;;;;;;;2.00;1.80;;;;;;;8.95;100.00;98035.28;5093705;28;20312;-73
2023/12/29 07:12:50;;;;;;;2.00;1.90;;;;;;;9.01;100.00;98034.47;5093342;28;20239;-73
2023/12/29 07:15:16;;;;;;;1.87;1.70;;;;;;;9.01;100.00;98029.19;5093776;28;20598;-73
2023/12/29 07:17:43;;;;;;;1.90;1.80;;;;;;;9.02;100.00;98030.78;5093278;28;20702;-73
2023/12/29 07:20:09;;;;;;;2.87;1.80;;;;;;;8.99;100.00;98020.59;5093672;28;20314;-73
2023/12/29 07:22:36;;;;;;;2.23;2.03;;;;;;;8.90;100.00;98021.84;5093328;28;20200;-73
2023/12/29 07:25:03;;;;;;;2.00;1.80;;;;;;;8.89;100.00;98029.00;5093487;28;20287;-73
2023/12/29 07:27:29;;;;;;;2.70;1.80;;;;;;;8.92;100.00;98022.47;5094346;28;20290;-73
2023/12/29 07:29:55;;;;;;;2.40;2.00;;;;;;;8.92;100.00;98017.97;5093812;28;20310;-73
2023/12/29 07:32:22;;;;;;;1.73;1.63;;;;;;;8.89;100.00;98026.34;5093700;28;20204;-73
2023/12/29 07:34:49;;;;;;;3.10;1.80;;;;;;;8.85;100.00;98021.66;5093194;28;20587;-73
2023/12/29 07:37:15;;;;;;;1.70;1.60;;;;;;;8.91;100.00;98019.00;5093772;28;20204;-73
2023/12/29 07:39:41;;;;;;;1.87;1.70;;;;;;;8.96;100.00;98023.69;5093175;28;20307;-73
2023/12/29 07:42:08;;;;;;;2.27;1.90;;;;;;;8.90;100.00;98027.16;5093618;28;20286;-73
2023/12/29 07:44:34;;;;;;;2.90;2.00;;;;;;;8.88;100.00;98026.56;5093117;28;20645;-74
2023/12/29 07:47:01;;;;;;;2.07;1.77;;;;;;;8.98;100.00;98024.28;5093604;28;20291;-73
2023/12/29 07:49:27;;;;;;;3.40;1.97;;;;;;;9.03;100.00;98027.13;5092976;28;20664;-74
2023/12/29 07:51:54;;;;;;;2.20;1.63;;;;;;;9.02;100.00;98025.50;5093109;28;20203;-74
2023/12/29 07:54:20;;;;;;;1.70;1.60;;;;;;;9.03;100.00;98035.91;5093151;28;20286;-75
2023/12/29 07:56:50;;;;;;;3.00;1.80;;;;;;;9.04;100.00;98026.91;5096079;28;20290;-75
2023/12/29 07:59:17;;;;;;;1.70;1.43;;;;;;;9.06;100.00;98027.50;5097128;28;20234;-74
2023/12/29 08:01:43;;;;;;;3.93;1.87;;;;;;;9.17;100.00;98036.66;5097499;28;20203;-75
2023/12/29 08:04:10;;;;;;;1.80;1.70;;;;;;;9.19;100.00;98037.25;5097692;28;20207;-74
2023/12/29 08:06:38;;;;;;;1.80;1.70;;;;;;;9.18;100.00;98038.25;5097599;28;20253;-75
2023/12/29 08:09:05;;;;;;;2.00;1.67;;;;;;;9.25;100.00;98036.41;5097481;28;20318;-75
2023/12/29 08:11:31;;;;;;;1.63;1.53;;;;;;;9.24;100.00;98042.75;5097539;28;20573;-75
2023/12/29 08:13:58;;;;;;;3.63;1.90;;;;;;;9.25;100.00;98033.75;5097192;28;20210;-74
2023/12/29 08:16:24;;;;;;;1.57;1.47;;;;;;;9.27;100.00;98029.03;5096544;28;20265;-75
2023/12/29 08:18:51;;;;;;;2.27;1.57;;;;;;;9.27;100.00;98037.81;5096597;28;20208;-74
2023/12/29 08:21:21;;;;;;;3.10;1.70;;;;;;;9.36;100.00;98049.00;5096693;28;20674;-75
2023/12/29 08:23:48;;;;;;;2.40;1.87;;;;;;;9.47;100.00;98046.53;5096786;28;20253;-74
2023/12/29 08:26:16;;;;;;;1.70;1.50;;;;;;;9.48;100.00;98055.28;5096938;28;20283;-74
2023/12/29 08:28:42;;;;;;;3.57;1.70;;;;;;;9.52;100.00;98048.53;5096661;28;20208;-75
2023/12/29 08:31:09;;;;;;;1.93;1.60;;;;;;;9.52;100.00;98049.34;5096992;28;20204;-76
2023/12/29 08:33:35;;;;;;;1.40;1.30;;;;;;;9.51;100.00;98058.31;5096995;28;20203;-76
2023/12/29 08:36:04;;;;;;;2.40;1.50;;;;;;;9.53;100.00;98050.97;5096631;28;20224;-75
2023/12/29 08:38:31;;;;;;;1.50;1.40;;;;;;;9.60;100.00;98049.09;5096448;28;20207;-75
2023/12/29 08:40:58;;;;;;;1.77;1.67;;;;;;;9.57;100.00;98068.09;5096795;28;20285;-75
2023/12/29 08:43:24;;;;;;;1.80;1.70;;;;;;;9.58;100.00;98048.50;5096357;28;20294;-75
2023/12/29 08:45:51;;;;;;;1.80;1.70;;;;;;;9.54;100.00;98054.44;5095631;28;20206;-74
2023/12/29 08:48:17;;;;;;;1.93;1.73;;;;;;;9.60;100.00;98058.91;5095685;28;20215;-75
2023/12/29 08:50:50;;;;;;;2.00;1.87;;;;;;;9.56;100.00;98063.00;5096061;28;20225;-74
2023/12/29 08:53:18;;;;;;;1.80;1.70;;;;;;;9.53;100.00;98050.97;5097133;28;20627;-75
2023/12/29 08:55:47;;;;;;;2.63;1.70;;;;;;;9.46;100.00;98060.00;5096269;28;20228;-74
2023/12/29 08:58:23;;;;;;;1.70;1.60;;;;;;;9.51;100.00;98063.63;5096062;28;20200;-75
2023/12/29 09:00:49;;;;;;;3.07;2.00;;;;;;;9.47;100.00;98066.94;5096234;28;20235;-75
2023/12/29 09:03:16;;;;;;;3.50;1.90;;;;;;;9.48;100.00;98063.25;5096413;28;20206;-74
2023/12/29 09:05:42;;;;;;;1.73;1.60;;;;;;;9.47;100.00;98057.16;5095855;28;20192;-75
2023/12/29 09:08:08;;;;;;;2.27;1.77;;;;;;;9.45;100.00;98059.19;5094752;28;20204;-75
2023/12/29 09:10:35;;;;;;;2.37;1.70;;;;;;;9.51;100.00;98060.97;5095888;28;20227;-75
2023/12/29 09:13:01;;;;;;;2.00;1.80;;;;;;;9.65;100.00;98046.59;5096112;28;20670;-74
2023/12/29 09:15:27;;;;;;;1.83;1.70;;;;;;;9.70;100.00;98057.41;5096061;28;20228;-75
2023/12/29 09:17:54;;;;;;;1.90;1.80;;;;;;;9.75;100.00;98064.72;5096367;28;20670;-75
2023/12/29 09:20:20;;;;;;;2.03;1.70;;;;;;;9.81;100.00;98054.06;5095572;28;20590;-75
2023/12/29 09:22:46;;;;;;;1.60;1.50;;;;;;;9.77;100.00;98057.38;5095886;28;20204;-75
2023/12/29 09:25:13;;;;;;;1.80;1.50;;;;;;;9.82;100.00;98057.56;5095858;28;20229;-75
2023/12/29 09:27:39;;;;;;;3.03;1.40;;;;;;;9.89;100.00;98059.13;5095758;28;20610;-75
2023/12/29 09:30:06;;;;;;;1.50;1.30;;;;;;;9.99;100.00;98056.00;5095228;28;20566;-75
2023/12/29 09:32:33;;;;;;;2.83;1.40;;;;;;;10.24;100.00;98062.19;5095551;28;20200;-74
2023/12/29 09:34:59;;;;;;;2.23;1.50;;;;;;;10.24;100.00;98073.63;5095380;28;20224;-74
2023/12/29 09:37:26;;;;;;;1.47;1.37;;;;;;;10.33;100.00;98080.28;5095543;28;20290;-74
2023/12/29 09:39:52;;;;;;;1.40;1.30;;;;;;;10.42;100.00;98078.19;5095225;28;20250;-75
2023/12/29 09:42:22;;;;;;;1.40;1.10;;;;;;;10.45;100.00;98077.75;5095276;28;20214;-74
2023/12/29 09:44:51;;;;;;;1.63;1.20;;;;;;;10.32;100.00;98085.84;5095369;28;20208;-74
2023/12/29 09:47:24;;;;;;;1.33;1.20;;;;;;;10.39;100.00;98081.25;5095259;28;20277;-74
2023/12/29 09:49:52;;;;;;;1.30;1.03;;;;;;;10.37;100.00;98088.66;5095553;28;20234;-74
2023/12/29 09:52:20;;;;;;;1.10;1.00;;;;;;;10.41;100.00;98079.22;5095222;28;20298;-74
2023/12/29 09:54:48;;;;;;;1.23;1.13;;;;;;;10.39;100.00;98078.59;5095258;28;20207;-74
2023/12/29 09:57:15;;;;;;;1.97;1.20;;;;;;;10.49;100.00;98089.56;5094944;28;20210;-74
2023/12/29 09:59:42;;;;;;;0.97;0.90;;;;;;;10.56;100.00;98085.84;5095005;28;20586;-74
2023/12/29 10:02:16;;;;;;;1.27;1.17;;;;;;;10.71;100.00;98096.13;5095007;28;20211;-74
2023/12/29 10:04:43;;;;;;;1.33;1.10;;;;;;;10.79;100.00;98101.97;5095005;28;20195;-74
2023/12/29 10:07:14;;;;;;;1.43;0.97;;;;;;;10.88;100.00;98095.34;5095031;28;20308;-74
2023/12/29 10:09:43;;;;;;;1.13;1.00;;;;;;;10.84;100.00;98093.34;5095596;28;20589;-74
2023/12/29 10:12:10;;;;;;;1.30;1.03;;;;;;;10.78;100.00;98084.38;5095030;28;20207;-74
2023/12/29 10:14:47;;;;;;;1.00;0.90;;;;;;;10.89;100.00;98080.19;5094803;28;20202;-73
2023/12/29 10:17:39;;;;;;;1.07;0.87;;;;;;;10.99;100.00;98081.31;5094829;28;20193;-73
2023/12/29 10:20:22;;;;;;;1.27;1.17;;;;;;;11.01;100.00;98073.13;5094300;28;20282;-74
2023/12/29 10:23:16;;;;;;;0.93;0.93;;;;;;;11.01;100.00;98070.47;5094655;28;20201;-74
2023/12/29 10:25:43;;;;;;;1.27;1.10;;;;;;;11.10;100.00;98074.44;5094588;28;20231;-74
2023/12/29 10:28:14;;;;;;;1.23;1.13;;;;;;;11.17;100.00;98074.38;5094275;28;20239;-74
2023/12/29 10:30:40;;;;;;;1.20;1.10;;;;;;;11.13;100.00;98071.34;5094577;28;20232;-75
2023/12/29 10:33:06;;;;;;;1.40;1.30;;;;;;;11.13;100.00;98062.56;5094220;28;20561;-75
2023/12/29 10:35:34;;;;;;;1.63;1.33;;;;;;;11.14;100.00;98063.13;5094089;28;20692;-75
2023/12/29 10:38:13;;;;;;;1.27;1.17;;;;;;;11.17;100.00;98053.88;5094136;28;20201;-74
2023/12/29 10:40:42;;;;;;;1.17;1.17;;;;;;;11.22;100.00;98059.38;5094416;28;20222;-75
2023/12/29 10:43:09;;;;;;;1.07;0.97;;;;;;;11.19;100.00;98054.50;5094164;28;20210;-75
2023/12/29 10:45:36;;;;;;;1.20;1.10;;;;;;;11.18;100.00;98048.34;5094276;28;20205;-75
2023/12/29 10:48:03;;;;;;;1.10;1.10;;;;;;;11.24;100.00;98051.97;5094106;28;20359;-75
2023/12/29 10:50:30;;;;;;;1.80;1.13;;;;;;;11.18;100.00;98049.38;5094058;28;20249;-75
2023/12/29 10:53:20;;;;;;;1.70;1.00;;;;;;;11.22;100.00;98042.59;5094483;28;20210;-75
2023/12/29 10:55:46;;;;;;;0.90;0.90;;;;;;;11.19;100.00;98038.53;5094296;28;20208;-75
2023/12/29 10:58:13;;;;;;;1.63;1.00;;;;;;;11.19;100.00;98044.66;5093888;28;20214;-75
2023/12/29 11:00:39;;;;;;;0.90;0.90;;;;;;;11.24;100.00;98025.38;5093843;28;20228;-75
2023/12/29 11:03:06;;;;;;;0.70;0.70;;;;;;;11.23;100.00;98034.38;5094104;28;20213;-75
2023/12/29 11:05:33;;;;;;;0.93;0.90;;;;;;;11.27;100.00;98022.25;5094215;28;20255;-75
2023/12/29 11:07:59;;;;;;;1.13;0.90;;;;;;;11.32;100.00;98023.19;5093624;28;20257;-75
2023/12/29 11:10:26;;;;;;;0.83;0.83;;;;;;;11.34;100.00;98027.50;5093968;28;20242;-75
2023/12/29 11:12:53;;;;;;;1.53;0.90;;;;;;;11.32;100.00;98020.53;5093470;28;20247;-75
2023/12/29 11:15:20;;;;;;;1.27;0.93;;;;;;;11.31;100.00;98020.78;5093613;28;20202;-74
2023/12/29 11:17:50;;;;;;;1.10;0.80;;;;;;;11.35;100.00;98016.59;5093539;28;20703;-74
2023/12/29 11:20:19;;;;;;;0.97;0.87;;;;;;;11.38;100.00;98010.84;5093730;28;20320;-74
2023/12/29 11:22:47;;;;;;;1.00;0.93;;;;;;;11.41;100.00;98005.09;5093051;28;20239;-74
2023/12/29 11:25:16;;;;;;;1.07;0.97;;;;;;;11.34;100.00;98007.00;5093642;28;20208;-74
2023/12/29 11:27:43;;;;;;;0.87;0.87;;;;;;;11.38;100.00;98015.34;5093542;28;20203;-75
2023/12/29 11:30:13;;;;;;;1.07;1.00;;;;;;;11.48;100.00;98012.97;5092839;28;20232;-74
2023/12/29 11:32:54;;;;;;;0.70;0.70;;;;;;;11.51;100.00;98008.00;5075628;28;20212;-74
2023/12/29 11:35:26;;;;;;;0.90;0.90;;;;;;;11.54;100.00;98010.22;5093367;28;20281;-74